sensor_id;sensor_type;location;lat;lon;timestamp;P1;durP1;ratioP1;P2;durP2;ratioP2
57985;SDS011;43788;42.670;23.330;2023-12-20T00:01:21;2.30;;;2.03;;
57985;SDS011;43788;42.670;23.330;2023-12-20T00:03:47;2.15;;;1.83;;
57985;SDS011;43788;42.670;23.330;2023-12-20T00:06:12;2.70;;;1.90;;
57985;SDS011;43788;42.670;23.330;2023-12-20T00:08:38;3.10;;;2.40;;
57985;SDS011;43788;42.670;23.330;2023-12-20T00:11:03;2.25;;;2.05;;
57985;SDS011;43788;42.670;23.330;2023-12-20T00:13:29;4.80;;;2.33;;
57985;SDS011;43788;42.670;23.330;2023-12-20T00:15:54;2.03;;;1.92;;
57985;SDS011;43788;42.670;23.330;2023-12-20T00:18:19;2.10;;;1.90;;
57985;SDS011;43788;42.670;23.330;2023-12-20T00:20:45;3.03;;;2.45;;
57985;SDS011;43788;42.670;23.330;2023-12-20T00:23:10;3.63;;;2.55;;
57985;SDS011;43788;42.670;23.330;2023-12-20T00:25:36;1.80;;;1.70;;
57985;SDS011;43788;42.670;23.330;2023-12-20T00:28:01;1.90;;;1.63;;
57985;SDS011;43788;42.670;23.330;2023-12-20T00:30:27;3.08;;;2.40;;
57985;SDS011;43788;42.670;23.330;2023-12-20T00:32:53;2.50;;;1.92;;
57985;SDS011;43788;42.670;23.330;2023-12-20T00:35:18;2.65;;;2.45;;
57985;SDS011;43788;42.670;23.330;2023-12-20T00:37:44;2.00;;;1.80;;
57985;SDS011;43788;42.670;23.330;2023-12-20T00:40:09;1.45;;;1.33;;
57985;SDS011;43788;42.670;23.330;2023-12-20T00:42:35;3.47;;;2.28;;
57985;SDS011;43788;42.670;23.330;2023-12-20T00:45:01;2.55;;;2.35;;
57985;SDS011;43788;42.670;23.330;2023-12-20T00:47:27;2.80;;;2.40;;
57985;SDS011;43788;42.670;23.330;2023-12-20T00:49:53;4.28;;;2.53;;
57985;SDS011;43788;42.670;23.330;2023-12-20T00:52:18;3.33;;;2.80;;
57985;SDS011;43788;42.670;23.330;2023-12-20T00:54:44;2.95;;;2.17;;
57985;SDS011;43788;42.670;23.330;2023-12-20T00:57:10;2.42;;;2.00;;
57985;SDS011;43788;42.670;23.330;2023-12-20T00:59:36;3.47;;;2.50;;
57985;SDS011;43788;42.670;23.330;2023-12-20T01:02:01;2.63;;;2.38;;
57985;SDS011;43788;42.670;23.330;2023-12-20T01:04:27;2.20;;;2.00;;
57985;SDS011;43788;42.670;23.330;2023-12-20T01:06:52;2.22;;;2.05;;
57985;SDS011;43788;42.670;23.330;2023-12-20T01:09:18;2.33;;;2.00;;
57985;SDS011;43788;42.670;23.330;2023-12-20T01:11:44;2.58;;;1.90;;
57985;SDS011;43788;42.670;23.330;2023-12-20T01:14:11;2.50;;;2.30;;
57985;SDS011;43788;42.670;23.330;2023-12-20T01:16:37;2.13;;;1.85;;
57985;SDS011;43788;42.670;23.330;2023-12-20T01:19:03;2.78;;;2.13;;
57985;SDS011;43788;42.670;23.330;2023-12-20T01:21:29;2.55;;;1.88;;
57985;SDS011;43788;42.670;23.330;2023-12-20T01:23:55;2.35;;;1.85;;
57985;SDS011;43788;42.670;23.330;2023-12-20T01:26:20;3.85;;;2.55;;
57985;SDS011;43788;42.670;23.330;2023-12-20T01:28:45;2.58;;;2.20;;
57985;SDS011;43788;42.670;23.330;2023-12-20T01:31:11;2.70;;;2.08;;
57985;SDS011;43788;42.670;23.330;2023-12-20T01:33:36;3.60;;;2.55;;
57985;SDS011;43788;42.670;23.330;2023-12-20T01:36:02;2.45;;;1.90;;
57985;SDS011;43788;42.670;23.330;2023-12-20T01:38:28;4.18;;;2.72;;
57985;SDS011;43788;42.670;23.330;2023-12-20T01:40:54;2.67;;;2.13;;
57985;SDS011;43788;42.670;23.330;2023-12-20T01:43:19;3.53;;;2.90;;
57985;SDS011;43788;42.670;23.330;2023-12-20T01:45:45;2.80;;;2.42;;
57985;SDS011;43788;42.670;23.330;2023-12-20T01:48:11;1.88;;;1.77;;
57985;SDS011;43788;42.670;23.330;2023-12-20T01:50:37;2.05;;;1.88;;
57985;SDS011;43788;42.670;23.330;2023-12-20T01:53:04;4.28;;;2.97;;
57985;SDS011;43788;42.670;23.330;2023-12-20T01:55:31;3.35;;;2.10;;
57985;SDS011;43788;42.670;23.330;2023-12-20T01:57:58;3.90;;;2.63;;
57985;SDS011;43788;42.670;23.330;2023-12-20T02:00:25;2.45;;;2.25;;
57985;SDS011;43788;42.670;23.330;2023-12-20T02:02:53;2.25;;;1.90;;
57985;SDS011;43788;42.670;23.330;2023-12-20T02:05:20;2.95;;;2.45;;
57985;SDS011;43788;42.670;23.330;2023-12-20T02:07:46;3.22;;;1.73;;
57985;SDS011;43788;42.670;23.330;2023-12-20T02:10:12;2.67;;;2.20;;
57985;SDS011;43788;42.670;23.330;2023-12-20T02:12:38;2.58;;;2.38;;
57985;SDS011;43788;42.670;23.330;2023-12-20T02:15:03;3.25;;;2.33;;
57985;SDS011;43788;42.670;23.330;2023-12-20T02:17:30;2.55;;;2.35;;
57985;SDS011;43788;42.670;23.330;2023-12-20T02:19:57;2.63;;;2.15;;
57985;SDS011;43788;42.670;23.330;2023-12-20T02:22:22;1.98;;;1.75;;
57985;SDS011;43788;42.670;23.330;2023-12-20T02:24:47;2.13;;;1.85;;
57985;SDS011;43788;42.670;23.330;2023-12-20T02:27:13;4.13;;;2.67;;
57985;SDS011;43788;42.670;23.330;2023-12-20T02:29:40;2.95;;;2.10;;
57985;SDS011;43788;42.670;23.330;2023-12-20T02:32:06;5.45;;;2.35;;
57985;SDS011;43788;42.670;23.330;2023-12-20T02:34:31;3.13;;;2.28;;
57985;SDS011;43788;42.670;23.330;2023-12-20T02:36:56;2.20;;;1.80;;
57985;SDS011;43788;42.670;23.330;2023-12-20T02:39:22;2.17;;;2.00;;
57985;SDS011;43788;42.670;23.330;2023-12-20T02:41:47;2.90;;;2.70;;
57985;SDS011;43788;42.670;23.330;2023-12-20T02:44:13;5.10;;;2.97;;
57985;SDS011;43788;42.670;23.330;2023-12-20T02:46:39;4.45;;;4.05;;
57985;SDS011;43788;42.670;23.330;2023-12-20T02:49:04;6.40;;;5.75;;
57985;SDS011;43788;42.670;23.330;2023-12-20T02:51:30;5.55;;;4.95;;
57985;SDS011;43788;42.670;23.330;2023-12-20T02:53:56;4.88;;;4.43;;
57985;SDS011;43788;42.670;23.330;2023-12-20T02:56:21;5.65;;;4.60;;
57985;SDS011;43788;42.670;23.330;2023-12-20T02:58:46;3.92;;;3.53;;
57985;SDS011;43788;42.670;23.330;2023-12-20T03:01:12;5.50;;;4.40;;
57985;SDS011;43788;42.670;23.330;2023-12-20T03:03:37;5.05;;;4.13;;
57985;SDS011;43788;42.670;23.330;2023-12-20T03:06:04;7.00;;;4.70;;
57985;SDS011;43788;42.670;23.330;2023-12-20T03:08:29;8.80;;;6.57;;
57985;SDS011;43788;42.670;23.330;2023-12-20T03:10:55;5.00;;;4.53;;
57985;SDS011;43788;42.670;23.330;2023-12-20T03:13:20;11.00;;;6.47;;
57985;SDS011;43788;42.670;23.330;2023-12-20T03:15:45;8.80;;;4.93;;
57985;SDS011;43788;42.670;23.330;2023-12-20T03:18:11;6.22;;;5.22;;
57985;SDS011;43788;42.670;23.330;2023-12-20T03:20:37;7.05;;;5.38;;
57985;SDS011;43788;42.670;23.330;2023-12-20T03:23:02;11.48;;;5.20;;
57985;SDS011;43788;42.670;23.330;2023-12-20T03:25:28;5.93;;;5.38;;
57985;SDS011;43788;42.670;23.330;2023-12-20T03:27:53;5.18;;;3.85;;
57985;SDS011;43788;42.670;23.330;2023-12-20T03:30:19;3.67;;;3.22;;
57985;SDS011;43788;42.670;23.330;2023-12-20T03:32:44;2.85;;;2.58;;
57985;SDS011;43788;42.670;23.330;2023-12-20T03:35:10;2.72;;;2.22;;
57985;SDS011;43788;42.670;23.330;2023-12-20T03:37:36;2.22;;;2.03;;
57985;SDS011;43788;42.670;23.330;2023-12-20T03:40:02;2.55;;;2.35;;
57985;SDS011;43788;42.670;23.330;2023-12-20T03:42:27;2.90;;;2.63;;
57985;SDS011;43788;42.670;23.330;2023-12-20T03:44:53;3.30;;;2.72;;
57985;SDS011;43788;42.670;23.330;2023-12-20T03:47:18;3.42;;;3.10;;
57985;SDS011;43788;42.670;23.330;2023-12-20T03:49:44;4.25;;;3.28;;
57985;SDS011;43788;42.670;23.330;2023-12-20T03:52:09;3.67;;;3.20;;
57985;SDS011;43788;42.670;23.330;2023-12-20T03:54:35;4.97;;;3.70;;
57985;SDS011;43788;42.670;23.330;2023-12-20T03:57:00;3.15;;;2.60;;
57985;SDS011;43788;42.670;23.330;2023-12-20T03:59:26;4.78;;;4.00;;
57985;SDS011;43788;42.670;23.330;2023-12-20T04:01:52;5.35;;;3.90;;
57985;SDS011;43788;42.670;23.330;2023-12-20T04:04:18;3.47;;;2.97;;
57985;SDS011;43788;42.670;23.330;2023-12-20T04:06:44;4.93;;;4.40;;
57985;SDS011;43788;42.670;23.330;2023-12-20T04:09:09;4.80;;;3.97;;
57985;SDS011;43788;42.670;23.330;2023-12-20T04:11:35;5.30;;;3.53;;
57985;SDS011;43788;42.670;23.330;2023-12-20T04:14:00;4.07;;;3.72;;
57985;SDS011;43788;42.670;23.330;2023-12-20T04:16:26;5.40;;;4.15;;
57985;SDS011;43788;42.670;23.330;2023-12-20T04:18:51;4.45;;;4.05;;
57985;SDS011;43788;42.670;23.330;2023-12-20T04:21:18;5.72;;;4.03;;
57985;SDS011;43788;42.670;23.330;2023-12-20T04:23:43;6.15;;;5.13;;
57985;SDS011;43788;42.670;23.330;2023-12-20T04:26:09;4.53;;;4.13;;
57985;SDS011;43788;42.670;23.330;2023-12-20T04:28:35;7.57;;;5.07;;
57985;SDS011;43788;42.670;23.330;2023-12-20T04:31:00;4.85;;;4.18;;
57985;SDS011;43788;42.670;23.330;2023-12-20T04:33:26;7.05;;;5.85;;
57985;SDS011;43788;42.670;23.330;2023-12-20T04:35:51;4.85;;;4.45;;
57985;SDS011;43788;42.670;23.330;2023-12-20T04:38:16;3.92;;;3.47;;
57985;SDS011;43788;42.670;23.330;2023-12-20T04:40:42;5.55;;;4.68;;
57985;SDS011;43788;42.670;23.330;2023-12-20T04:43:07;5.65;;;4.43;;
57985;SDS011;43788;42.670;23.330;2023-12-20T04:45:34;7.05;;;5.10;;
57985;SDS011;43788;42.670;23.330;2023-12-20T04:47:59;4.20;;;3.67;;
57985;SDS011;43788;42.670;23.330;2023-12-20T04:50:26;4.28;;;3.90;;
57985;SDS011;43788;42.670;23.330;2023-12-20T04:52:52;3.72;;;3.38;;
57985;SDS011;43788;42.670;23.330;2023-12-20T04:55:18;4.82;;;4.03;;
57985;SDS011;43788;42.670;23.330;2023-12-20T04:57:43;5.60;;;5.10;;
57985;SDS011;43788;42.670;23.330;2023-12-20T05:00:08;4.35;;;3.88;;
57985;SDS011;43788;42.670;23.330;2023-12-20T05:02:35;4.82;;;4.25;;
57985;SDS011;43788;42.670;23.330;2023-12-20T05:05:01;4.70;;;4.13;;
57985;SDS011;43788;42.670;23.330;2023-12-20T05:07:27;5.95;;;4.80;;
57985;SDS011;43788;42.670;23.330;2023-12-20T05:09:52;3.42;;;3.17;;
57985;SDS011;43788;42.670;23.330;2023-12-20T05:12:18;3.90;;;3.55;;
57985;SDS011;43788;42.670;23.330;2023-12-20T05:14:44;5.30;;;4.68;;
57985;SDS011;43788;42.670;23.330;2023-12-20T05:17:09;5.60;;;5.05;;
57985;SDS011;43788;42.670;23.330;2023-12-20T05:19:35;4.95;;;4.45;;
57985;SDS011;43788;42.670;23.330;2023-12-20T05:22:01;3.80;;;3.50;;
57985;SDS011;43788;42.670;23.330;2023-12-20T05:24:27;3.67;;;3.38;;
57985;SDS011;43788;42.670;23.330;2023-12-20T05:26:53;3.00;;;2.80;;
57985;SDS011;43788;42.670;23.330;2023-12-20T05:29:19;3.30;;;3.08;;
57985;SDS011;43788;42.670;23.330;2023-12-20T05:31:45;3.83;;;3.50;;
57985;SDS011;43788;42.670;23.330;2023-12-20T05:34:11;4.95;;;4.45;;
57985;SDS011;43788;42.670;23.330;2023-12-20T05:36:36;3.30;;;2.88;;
57985;SDS011;43788;42.670;23.330;2023-12-20T05:39:02;4.25;;;3.03;;
57985;SDS011;43788;42.670;23.330;2023-12-20T05:41:34;3.13;;;2.85;;
57985;SDS011;43788;42.670;23.330;2023-12-20T05:44:00;5.00;;;4.55;;
57985;SDS011;43788;42.670;23.330;2023-12-20T05:46:25;5.68;;;4.10;;
57985;SDS011;43788;42.670;23.330;2023-12-20T05:48:51;3.13;;;2.90;;
57985;SDS011;43788;42.670;23.330;2023-12-20T05:51:20;2.75;;;2.55;;
57985;SDS011;43788;42.670;23.330;2023-12-20T05:53:49;6.95;;;3.55;;
57985;SDS011;43788;42.670;23.330;2023-12-20T05:56:15;1.98;;;1.85;;
57985;SDS011;43788;42.670;23.330;2023-12-20T05:58:40;4.70;;;4.30;;
57985;SDS011;43788;42.670;23.330;2023-12-20T06:01:06;4.75;;;3.22;;
57985;SDS011;43788;42.670;23.330;2023-12-20T06:03:33;3.00;;;2.80;;
57985;SDS011;43788;42.670;23.330;2023-12-20T06:05:59;5.03;;;4.28;;
57985;SDS011;43788;42.670;23.330;2023-12-20T06:08:25;3.05;;;2.80;;
57985;SDS011;43788;42.670;23.330;2023-12-20T06:10:51;4.70;;;3.35;;
57985;SDS011;43788;42.670;23.330;2023-12-20T06:13:16;3.33;;;2.85;;
57985;SDS011;43788;42.670;23.330;2023-12-20T06:15:42;6.88;;;3.15;;
57985;SDS011;43788;42.670;23.330;2023-12-20T06:18:08;3.47;;;3.15;;
57985;SDS011;43788;42.670;23.330;2023-12-20T06:20:37;4.50;;;3.22;;
57985;SDS011;43788;42.670;23.330;2023-12-20T06:23:02;2.70;;;2.40;;
57985;SDS011;43788;42.670;23.330;2023-12-20T06:25:30;4.43;;;3.15;;
57985;SDS011;43788;42.670;23.330;2023-12-20T06:27:56;4.93;;;2.47;;
57985;SDS011;43788;42.670;23.330;2023-12-20T06:30:29;3.63;;;3.33;;
57985;SDS011;43788;42.670;23.330;2023-12-20T06:32:57;3.22;;;2.28;;
57985;SDS011;43788;42.670;23.330;2023-12-20T06:35:24;2.28;;;2.13;;
57985;SDS011;43788;42.670;23.330;2023-12-20T06:37:53;2.33;;;2.13;;
57985;SDS011;43788;42.670;23.330;2023-12-20T06:40:22;2.40;;;2.17;;
57985;SDS011;43788;42.670;23.330;2023-12-20T06:42:47;8.20;;;4.30;;
57985;SDS011;43788;42.670;23.330;2023-12-20T06:45:12;3.08;;;2.65;;
57985;SDS011;43788;42.670;23.330;2023-12-20T06:47:38;3.10;;;2.40;;
57985;SDS011;43788;42.670;23.330;2023-12-20T06:50:04;3.47;;;3.22;;
57985;SDS011;43788;42.670;23.330;2023-12-20T06:52:30;2.85;;;2.35;;
57985;SDS011;43788;42.670;23.330;2023-12-20T06:54:56;4.30;;;3.38;;
57985;SDS011;43788;42.670;23.330;2023-12-20T06:57:21;3.85;;;3.38;;
57985;SDS011;43788;42.670;23.330;2023-12-20T06:59:47;5.50;;;2.67;;
57985;SDS011;43788;42.670;23.330;2023-12-20T07:02:15;3.92;;;3.55;;
57985;SDS011;43788;42.670;23.330;2023-12-20T07:04:41;3.42;;;3.08;;
57985;SDS011;43788;42.670;23.330;2023-12-20T07:07:06;4.20;;;2.80;;
57985;SDS011;43788;42.670;23.330;2023-12-20T07:09:32;3.83;;;3.45;;
57985;SDS011;43788;42.670;23.330;2023-12-20T07:11:58;3.47;;;3.08;;
57985;SDS011;43788;42.670;23.330;2023-12-20T07:14:24;4.15;;;3.75;;
57985;SDS011;43788;42.670;23.330;2023-12-20T07:16:50;4.07;;;3.67;;
57985;SDS011;43788;42.670;23.330;2023-12-20T07:19:19;5.38;;;3.80;;
57985;SDS011;43788;42.670;23.330;2023-12-20T07:21:45;3.80;;;3.50;;
57985;SDS011;43788;42.670;23.330;2023-12-20T07:24:10;5.32;;;3.20;;
57985;SDS011;43788;42.670;23.330;2023-12-20T07:26:36;5.50;;;4.32;;
57985;SDS011;43788;42.670;23.330;2023-12-20T07:29:03;3.83;;;3.25;;
57985;SDS011;43788;42.670;23.330;2023-12-20T07:31:29;4.63;;;4.13;;
57985;SDS011;43788;42.670;23.330;2023-12-20T07:33:54;9.15;;;4.80;;
57985;SDS011;43788;42.670;23.330;2023-12-20T07:36:20;5.63;;;5.15;;
57985;SDS011;43788;42.670;23.330;2023-12-20T07:38:46;4.95;;;4.43;;
57985;SDS011;43788;42.670;23.330;2023-12-20T07:41:12;5.90;;;4.45;;
57985;SDS011;43788;42.670;23.330;2023-12-20T07:43:38;3.63;;;3.30;;
57985;SDS011;43788;42.670;23.330;2023-12-20T07:46:04;6.38;;;4.38;;
57985;SDS011;43788;42.670;23.330;2023-12-20T07:48:31;5.40;;;4.10;;
57985;SDS011;43788;42.670;23.330;2023-12-20T07:50:57;5.28;;;3.55;;
57985;SDS011;43788;42.670;23.330;2023-12-20T07:53:22;5.63;;;4.18;;
57985;SDS011;43788;42.670;23.330;2023-12-20T07:55:52;4.03;;;3.60;;
57985;SDS011;43788;42.670;23.330;2023-12-20T07:58:17;4.95;;;4.35;;
57985;SDS011;43788;42.670;23.330;2023-12-20T08:00:43;4.50;;;3.72;;
57985;SDS011;43788;42.670;23.330;2023-12-20T08:03:12;6.15;;;4.68;;
57985;SDS011;43788;42.670;23.330;2023-12-20T08:05:38;5.45;;;4.95;;
57985;SDS011;43788;42.670;23.330;2023-12-20T08:08:06;4.93;;;4.43;;
57985;SDS011;43788;42.670;23.330;2023-12-20T08:10:41;4.32;;;3.60;;
57985;SDS011;43788;42.670;23.330;2023-12-20T08:13:34;4.68;;;4.13;;
57985;SDS011;43788;42.670;23.330;2023-12-20T08:17:10;3.33;;;3.03;;
57985;SDS011;43788;42.670;23.330;2023-12-20T08:20:51;4.90;;;2.90;;
57985;SDS011;43788;42.670;23.330;2023-12-20T08:23:25;7.38;;;5.03;;
57985;SDS011;43788;42.670;23.330;2023-12-20T08:26:21;7.28;;;4.53;;
57985;SDS011;43788;42.670;23.330;2023-12-20T08:29:38;6.45;;;5.70;;
57985;SDS011;43788;42.670;23.330;2023-12-20T08:32:25;7.32;;;4.93;;
57985;SDS011;43788;42.670;23.330;2023-12-20T08:35:27;6.13;;;4.63;;
57985;SDS011;43788;42.670;23.330;2023-12-20T08:38:00;3.63;;;3.25;;
57985;SDS011;43788;42.670;23.330;2023-12-20T08:41:14;7.30;;;4.05;;
57985;SDS011;43788;42.670;23.330;2023-12-20T08:43:52;5.13;;;4.63;;
57985;SDS011;43788;42.670;23.330;2023-12-20T08:46:50;6.05;;;4.90;;
57985;SDS011;43788;42.670;23.330;2023-12-20T08:50:13;4.47;;;3.78;;
57985;SDS011;43788;42.670;23.330;2023-12-20T08:55:43;12.68;;;4.35;;
57985;SDS011;43788;42.670;23.330;2023-12-20T08:58:08;5.10;;;3.60;;
57985;SDS011;43788;42.670;23.330;2023-12-20T09:00:38;4.18;;;3.60;;
57985;SDS011;43788;42.670;23.330;2023-12-20T09:03:04;5.07;;;4.38;;
57985;SDS011;43788;42.670;23.330;2023-12-20T09:05:37;6.03;;;5.35;;
57985;SDS011;43788;42.670;23.330;2023-12-20T09:08:02;5.22;;;4.38;;
57985;SDS011;43788;42.670;23.330;2023-12-20T09:10:32;5.82;;;4.35;;
57985;SDS011;43788;42.670;23.330;2023-12-20T09:12:58;4.38;;;3.97;;
57985;SDS011;43788;42.670;23.330;2023-12-20T09:15:24;5.28;;;3.72;;
57985;SDS011;43788;42.670;23.330;2023-12-20T09:17:50;3.38;;;3.05;;
57985;SDS011;43788;42.670;23.330;2023-12-20T09:20:18;4.68;;;3.83;;
57985;SDS011;43788;42.670;23.330;2023-12-20T09:22:45;6.72;;;3.58;;
57985;SDS011;43788;42.670;23.330;2023-12-20T09:25:11;5.47;;;3.63;;
57985;SDS011;43788;42.670;23.330;2023-12-20T09:27:37;3.58;;;3.17;;
57985;SDS011;43788;42.670;23.330;2023-12-20T09:30:03;3.30;;;3.00;;
57985;SDS011;43788;42.670;23.330;2023-12-20T09:32:30;4.85;;;3.28;;
57985;SDS011;43788;42.670;23.330;2023-12-20T09:35:02;4.45;;;3.22;;
57985;SDS011;43788;42.670;23.330;2023-12-20T09:37:30;3.03;;;2.63;;
57985;SDS011;43788;42.670;23.330;2023-12-20T09:39:55;6.25;;;3.78;;
57985;SDS011;43788;42.670;23.330;2023-12-20T09:42:24;3.22;;;2.92;;
57985;SDS011;43788;42.670;23.330;2023-12-20T09:44:54;3.75;;;2.72;;
57985;SDS011;43788;42.670;23.330;2023-12-20T09:47:20;3.33;;;2.55;;
57985;SDS011;43788;42.670;23.330;2023-12-20T09:49:50;5.80;;;3.92;;
57985;SDS011;43788;42.670;23.330;2023-12-20T09:52:16;3.15;;;2.80;;
57985;SDS011;43788;42.670;23.330;2023-12-20T09:54:43;5.25;;;3.65;;
57985;SDS011;43788;42.670;23.330;2023-12-20T09:57:12;6.63;;;4.40;;
57985;SDS011;43788;42.670;23.330;2023-12-20T09:59:37;3.75;;;3.45;;
57985;SDS011;43788;42.670;23.330;2023-12-20T10:02:03;3.38;;;2.97;;
57985;SDS011;43788;42.670;23.330;2023-12-20T10:04:31;5.70;;;3.25;;
57985;SDS011;43788;42.670;23.330;2023-12-20T10:07:01;3.47;;;2.85;;
57985;SDS011;43788;42.670;23.330;2023-12-20T10:09:29;5.00;;;3.92;;
57985;SDS011;43788;42.670;23.330;2023-12-20T10:11:56;7.25;;;4.00;;
57985;SDS011;43788;42.670;23.330;2023-12-20T10:14:23;5.07;;;3.30;;
57985;SDS011;43788;42.670;23.330;2023-12-20T10:16:49;4.25;;;3.05;;
57985;SDS011;43788;42.670;23.330;2023-12-20T10:19:16;4.10;;;3.70;;
57985;SDS011;43788;42.670;23.330;2023-12-20T10:21:42;3.80;;;3.38;;
57985;SDS011;43788;42.670;23.330;2023-12-20T10:24:08;4.07;;;3.35;;
57985;SDS011;43788;42.670;23.330;2023-12-20T10:26:43;5.50;;;4.82;;
57985;SDS011;43788;42.670;23.330;2023-12-20T10:29:09;5.97;;;4.53;;
57985;SDS011;43788;42.670;23.330;2023-12-20T10:31:56;5.68;;;3.40;;
57985;SDS011;43788;42.670;23.330;2023-12-20T10:34:22;5.68;;;3.95;;
57985;SDS011;43788;42.670;23.330;2023-12-20T10:36:48;7.47;;;4.18;;
57985;SDS011;43788;42.670;23.330;2023-12-20T10:39:13;5.63;;;4.45;;
57985;SDS011;43788;42.670;23.330;2023-12-20T10:41:39;4.00;;;3.65;;
57985;SDS011;43788;42.670;23.330;2023-12-20T10:44:07;6.68;;;3.72;;
57985;SDS011;43788;42.670;23.330;2023-12-20T10:46:34;6.15;;;3.00;;
57985;SDS011;43788;42.670;23.330;2023-12-20T10:49:02;5.25;;;4.75;;
57985;SDS011;43788;42.670;23.330;2023-12-20T10:51:27;7.47;;;4.18;;
57985;SDS011;43788;42.670;23.330;2023-12-20T10:53:55;6.82;;;5.00;;
57985;SDS011;43788;42.670;23.330;2023-12-20T10:56:23;5.10;;;4.10;;
57985;SDS011;43788;42.670;23.330;2023-12-20T10:58:48;5.55;;;4.65;;
57985;SDS011;43788;42.670;23.330;2023-12-20T11:01:15;5.15;;;3.53;;
57985;SDS011;43788;42.670;23.330;2023-12-20T11:03:43;7.50;;;5.13;;
57985;SDS011;43788;42.670;23.330;2023-12-20T11:06:22;13.95;;;5.32;;
57985;SDS011;43788;42.670;23.330;2023-12-20T11:11:52;6.00;;;4.70;;
57985;SDS011;43788;42.670;23.330;2023-12-20T11:14:39;7.60;;;4.32;;
57985;SDS011;43788;42.670;23.330;2023-12-20T11:17:10;5.75;;;4.63;;
57985;SDS011;43788;42.670;23.330;2023-12-20T11:22:36;3.90;;;3.50;;
57985;SDS011;43788;42.670;23.330;2023-12-20T11:25:08;5.75;;;4.55;;
57985;SDS011;43788;42.670;23.330;2023-12-20T11:27:41;8.27;;;4.60;;
57985;SDS011;43788;42.670;23.330;2023-12-20T11:30:40;5.07;;;4.00;;
57985;SDS011;43788;42.670;23.330;2023-12-20T11:33:24;6.15;;;4.50;;
57985;SDS011;43788;42.670;23.330;2023-12-20T11:35:51;5.10;;;4.10;;
57985;SDS011;43788;42.670;23.330;2023-12-20T11:38:20;4.30;;;3.55;;
57985;SDS011;43788;42.670;23.330;2023-12-20T11:43:51;4.65;;;3.42;;
57985;SDS011;43788;42.670;23.330;2023-12-20T11:46:03;5.00;;;3.95;;
57985;SDS011;43788;42.670;23.330;2023-12-20T11:48:30;4.68;;;3.83;;
57985;SDS011;43788;42.670;23.330;2023-12-20T11:51:00;6.47;;;4.25;;
57985;SDS011;43788;42.670;23.330;2023-12-20T11:53:26;6.10;;;3.85;;
57985;SDS011;43788;42.670;23.330;2023-12-20T11:55:51;5.35;;;4.22;;
57985;SDS011;43788;42.670;23.330;2023-12-20T11:58:17;4.93;;;3.28;;
57985;SDS011;43788;42.670;23.330;2023-12-20T12:00:42;6.18;;;3.80;;
57985;SDS011;43788;42.670;23.330;2023-12-20T12:03:08;5.43;;;3.30;;
57985;SDS011;43788;42.670;23.330;2023-12-20T12:05:34;4.88;;;4.13;;
57985;SDS011;43788;42.670;23.330;2023-12-20T12:08:03;6.18;;;4.00;;
57985;SDS011;43788;42.670;23.330;2023-12-20T12:10:30;5.13;;;3.65;;
57985;SDS011;43788;42.670;23.330;2023-12-20T12:12:56;4.30;;;3.90;;
57985;SDS011;43788;42.670;23.330;2023-12-20T12:15:21;5.40;;;3.90;;
57985;SDS011;43788;42.670;23.330;2023-12-20T12:17:55;6.75;;;5.28;;
57985;SDS011;43788;42.670;23.330;2023-12-20T12:20:21;4.45;;;4.05;;
57985;SDS011;43788;42.670;23.330;2023-12-20T12:25:42;5.18;;;4.22;;
57985;SDS011;43788;42.670;23.330;2023-12-20T12:28:26;6.22;;;4.70;;
57985;SDS011;43788;42.670;23.330;2023-12-20T12:31:02;5.47;;;4.10;;
57985;SDS011;43788;42.670;23.330;2023-12-20T12:33:44;4.82;;;4.22;;
57985;SDS011;43788;42.670;23.330;2023-12-20T12:40:11;4.93;;;4.40;;
57985;SDS011;43788;42.670;23.330;2023-12-20T12:42:53;4.50;;;3.75;;
57985;SDS011;43788;42.670;23.330;2023-12-20T12:45:21;5.07;;;4.43;;
57985;SDS011;43788;42.670;23.330;2023-12-20T12:48:32;5.18;;;4.10;;
57985;SDS011;43788;42.670;23.330;2023-12-20T12:51:45;5.10;;;3.80;;
57985;SDS011;43788;42.670;23.330;2023-12-20T12:54:40;7.97;;;4.85;;
57985;SDS011;43788;42.670;23.330;2023-12-20T12:57:10;8.63;;;5.15;;
57985;SDS011;43788;42.670;23.330;2023-12-20T12:59:59;7.88;;;4.93;;
57985;SDS011;43788;42.670;23.330;2023-12-20T13:02:28;5.82;;;3.80;;
57985;SDS011;43788;42.670;23.330;2023-12-20T13:04:54;7.18;;;6.13;;
57985;SDS011;43788;42.670;23.330;2023-12-20T13:07:22;6.80;;;4.97;;
57985;SDS011;43788;42.670;23.330;2023-12-20T13:09:48;6.18;;;5.03;;
57985;SDS011;43788;42.670;23.330;2023-12-20T13:12:13;6.60;;;5.22;;
57985;SDS011;43788;42.670;23.330;2023-12-20T13:14:39;6.85;;;5.25;;
57985;SDS011;43788;42.670;23.330;2023-12-20T13:17:05;8.73;;;6.15;;
57985;SDS011;43788;42.670;23.330;2023-12-20T13:19:36;6.05;;;4.15;;
57985;SDS011;43788;42.670;23.330;2023-12-20T13:22:02;6.30;;;5.40;;
57985;SDS011;43788;42.670;23.330;2023-12-20T13:24:28;9.55;;;5.68;;
57985;SDS011;43788;42.670;23.330;2023-12-20T13:26:54;6.10;;;4.20;;
57985;SDS011;43788;42.670;23.330;2023-12-20T13:29:20;7.57;;;4.60;;
57985;SDS011;43788;42.670;23.330;2023-12-20T13:31:45;6.97;;;4.30;;
57985;SDS011;43788;42.670;23.330;2023-12-20T13:34:13;15.95;;;5.63;;
57985;SDS011;43788;42.670;23.330;2023-12-20T13:36:55;14.35;;;5.55;;
57985;SDS011;43788;42.670;23.330;2023-12-20T13:39:39;4.78;;;3.92;;
57985;SDS011;43788;42.670;23.330;2023-12-20T13:42:19;8.18;;;6.10;;
57985;SDS011;43788;42.670;23.330;2023-12-20T13:44:45;6.03;;;4.82;;
57985;SDS011;43788;42.670;23.330;2023-12-20T13:47:12;8.75;;;5.70;;
57985;SDS011;43788;42.670;23.330;2023-12-20T13:49:37;8.23;;;4.47;;
57985;SDS011;43788;42.670;23.330;2023-12-20T13:52:05;7.00;;;5.78;;
57985;SDS011;43788;42.670;23.330;2023-12-20T13:54:42;7.40;;;5.10;;
57985;SDS011;43788;42.670;23.330;2023-12-20T13:57:17;5.55;;;4.63;;
57985;SDS011;43788;42.670;23.330;2023-12-20T13:59:43;10.82;;;5.38;;
57985;SDS011;43788;42.670;23.330;2023-12-20T14:02:10;6.20;;;4.90;;
57985;SDS011;43788;42.670;23.330;2023-12-20T14:04:35;7.43;;;6.15;;
57985;SDS011;43788;42.670;23.330;2023-12-20T14:07:04;7.72;;;6.03;;
57985;SDS011;43788;42.670;23.330;2023-12-20T14:09:30;6.45;;;5.43;;
57985;SDS011;43788;42.670;23.330;2023-12-20T14:11:55;7.25;;;5.10;;
57985;SDS011;43788;42.670;23.330;2023-12-20T14:14:22;5.13;;;4.60;;
57985;SDS011;43788;42.670;23.330;2023-12-20T14:16:51;8.27;;;6.55;;
57985;SDS011;43788;42.670;23.330;2023-12-20T14:19:23;7.95;;;5.38;;
57985;SDS011;43788;42.670;23.330;2023-12-20T14:21:48;6.70;;;4.45;;
57985;SDS011;43788;42.670;23.330;2023-12-20T14:24:14;8.25;;;5.40;;
57985;SDS011;43788;42.670;23.330;2023-12-20T14:26:41;6.60;;;5.20;;
57985;SDS011;43788;42.670;23.330;2023-12-20T14:29:07;8.23;;;5.88;;
57985;SDS011;43788;42.670;23.330;2023-12-20T14:31:34;7.78;;;6.38;;
57985;SDS011;43788;42.670;23.330;2023-12-20T14:34:01;6.47;;;4.72;;
57985;SDS011;43788;42.670;23.330;2023-12-20T14:36:29;5.97;;;4.80;;
57985;SDS011;43788;42.670;23.330;2023-12-20T14:38:55;6.13;;;5.45;;
57985;SDS011;43788;42.670;23.330;2023-12-20T14:41:21;5.63;;;4.50;;
57985;SDS011;43788;42.670;23.330;2023-12-20T14:43:49;4.95;;;3.92;;
57985;SDS011;43788;42.670;23.330;2023-12-20T14:46:16;7.28;;;5.20;;
57985;SDS011;43788;42.670;23.330;2023-12-20T14:48:42;5.93;;;4.88;;
57985;SDS011;43788;42.670;23.330;2023-12-20T14:51:07;12.57;;;7.55;;
57985;SDS011;43788;42.670;23.330;2023-12-20T14:53:33;6.38;;;5.32;;
57985;SDS011;43788;42.670;23.330;2023-12-20T14:56:01;8.57;;;5.88;;
57985;SDS011;43788;42.670;23.330;2023-12-20T14:58:27;8.15;;;4.53;;
57985;SDS011;43788;42.670;23.330;2023-12-20T15:00:54;6.85;;;4.03;;